Time;durP1;ratioP1;P1;durP2;ratioP2;P2;SDS_P1;SDS_P2;PMS_P1;PMS_P2;Temp;Humidity;BMP_temperature;BMP_pressure;BME280_temperature;BME280_humidity;BME280_pressure;Samples;Min_cycle;Max_cycle;Signal;HPM_P1;HPM_P2
2022/05/18 00:00:27;;;;;;;3.55;2.00;;;22.20;57.30;;;;;;5091505;28;20056;-75
2022/05/18 00:02:54;;;;;;;2.67;2.20;;;22.20;57.30;;;;;;5091317;28;20070;-75
2022/05/18 00:05:21;;;;;;;3.03;2.05;;;22.20;57.30;;;;;;5091721;28;20059;-75
2022/05/18 00:07:48;;;;;;;3.83;2.15;;;22.20;57.30;;;;;;5125519;27;20709;-75
2022/05/18 00:10:15;;;;;;;3.55;2.08;;;22.20;57.30;;;;;;5090642;28;20048;-75
2022/05/18 00:12:45;;;;;;;2.92;1.80;;;22.20;57.20;;;;;;5089901;28;20127;-75
2022/05/18 00:15:14;;;;;;;4.35;2.35;;;21.10;59.10;;;;;;5090894;28;20048;-75
2022/05/18 00:17:41;;;;;;;3.40;2.20;;;22.20;57.20;;;;;;5091285;28;20052;-75
2022/05/18 00:20:08;;;;;;;2.83;2.20;;;22.20;57.20;;;;;;5090985;28;20471;-75
2022/05/18 00:22:43;;;;;;;3.08;2.00;;;22.20;57.20;;;;;;5091421;28;20436;-75
2022/05/18 00:25:10;;;;;;;3.65;2.20;;;21.50;59.40;;;;;;5090822;28;20127;-75
2022/05/18 00:27:37;;;;;;;3.25;1.98;;;22.10;57.20;;;;;;5091351;28;20469;-75
2022/05/18 00:30:05;;;;;;;3.28;1.90;;;22.10;57.20;;;;;;5088695;28;20050;-75
2022/05/18 00:32:33;;;;;;;5.47;2.33;;;22.10;57.20;;;;;;5090753;28;20449;-75
2022/05/18 00:34:59;;;;;;;2.75;2.03;;;22.10;57.20;;;;;;5091062;28;20134;-75
2022/05/18 00:37:26;;;;;;;4.50;2.05;;;22.10;57.30;;;;;;5091196;28;20049;-75
2022/05/18 00:39:53;;;;;;;2.15;1.80;;;22.10;60.60;;;;;;5090700;28;20074;-75
2022/05/18 00:42:19;;;;;;;3.15;2.10;;;22.10;57.30;;;;;;5091050;28;20135;-75
2022/05/18 00:44:46;;;;;;;3.75;2.20;;;22.10;57.20;;;;;;5091060;28;20063;-75
2022/05/18 00:47:13;;;;;;;3.47;2.10;;;22.10;60.70;;;;;;5088788;28;20051;-75
2022/05/18 00:49:42;;;;;;;4.20;2.30;;;22.10;57.30;;;;;;5090415;28;20052;-75
2022/05/18 00:52:09;;;;;;;4.20;2.05;;;22.10;57.30;;;;;;5090916;28;20056;-75
2022/05/18 00:54:35;;;;;;;3.25;1.92;;;22.10;57.20;;;;;;5125621;28;20064;-75
2022/05/18 00:57:04;;;;;;;2.70;1.85;;;22.10;57.20;;;;;;5097491;28;20058;-75
2022/05/18 00:59:32;;;;;;;2.70;1.90;;;21.90;60.10;;;;;;5097421;28;20051;-75
2022/05/18 01:01:59;;;;;;;3.53;2.00;;;22.40;60.10;;;;;;5095362;28;20132;-75
2022/05/18 01:04:26;;;;;;;3.22;1.77;;;22.00;57.20;;;;;;5097609;28;20509;-75
2022/05/18 01:06:57;;;;;;;3.47;1.90;;;22.10;59.60;;;;;;5097558;28;20047;-75
2022/05/18 01:09:26;;;;;;;2.30;1.70;;;22.00;57.10;;;;;;5131543;27;20404;-75
2022/05/18 01:11:53;;;;;;;2.95;2.03;;;22.90;60.30;;;;;;5114357;28;20135;-75
2022/05/18 01:14:22;;;;;;;2.42;1.70;;;22.10;57.20;;;;;;5096867;28;20058;-75
2022/05/18 01:16:48;;;;;;;3.67;2.42;;;22.00;57.70;;;;;;5097228;28;20052;-75
2022/05/18 01:19:19;;;;;;;3.33;1.92;;;22.00;57.10;;;;;;5095606;28;20476;-75
2022/05/18 01:21:50;;;;;;;2.78;1.77;;;22.00;57.00;;;;;;5131457;27;20063;-75
2022/05/18 01:24:21;;;;;;;3.17;1.90;;;22.00;57.00;;;;;;5097438;28;20189;-75
2022/05/18 01:26:49;;;;;;;4.10;2.13;;;21.90;57.00;;;;;;5097233;28;20060;-75
2022/05/18 01:29:17;;;;;;;2.88;1.98;;;22.00;57.00;;;;;;5097116;28;20158;-75
2022/05/18 01:31:47;;;;;;;4.85;1.92;;;22.10;59.50;;;;;;5096994;28;20055;-75
2022/05/18 01:34:14;;;;;;;3.00;2.05;;;21.90;56.90;;;;;;5095708;28;20064;-75
2022/05/18 01:36:41;;;;;;;3.33;2.00;;;21.90;56.90;;;;;;5097267;28;20146;-75
2022/05/18 01:39:09;;;;;;;3.28;2.17;;;21.90;56.90;;;;;;5097022;28;20062;-75
2022/05/18 01:41:36;;;;;;;2.63;1.98;;;21.90;56.80;;;;;;5096987;28;20076;-75
2022/05/18 01:44:04;;;;;;;2.83;1.88;;;21.90;56.80;;;;;;5097250;28;20054;-75
2022/05/18 01:46:32;;;;;;;3.13;1.67;;;21.80;60.30;;;;;;5097244;28;20066;-75
2022/05/18 01:48:59;;;;;;;3.17;1.67;;;21.90;56.80;;;;;;5096927;28;20051;-75
2022/05/18 01:51:28;;;;;;;3.13;1.90;;;21.80;56.80;;;;;;5094713;28;20052;-75
2022/05/18 01:53:55;;;;;;;2.40;1.75;;;21.80;56.80;;;;;;5097164;28;20263;-75
2022/05/18 01:56:22;;;;;;;3.75;1.92;;;21.90;56.80;;;;;;5097109;28;20544;-75
2022/05/18 01:58:48;;;;;;;2.50;2.05;;;23.00;60.30;;;;;;5096420;28;20047;-75
2022/05/18 02:01:16;;;;;;;2.97;1.70;;;21.80;56.80;;;;;;5095462;28;20180;-75
2022/05/18 02:03:43;;;;;;;2.47;1.85;;;21.80;56.80;;;;;;5096989;28;20089;-75
2022/05/18 02:06:10;;;;;;;3.00;1.98;;;21.80;56.80;;;;;;5094528;28;20047;-75
2022/05/18 02:08:36;;;;;;;2.97;2.03;;;21.80;56.80;;;;;;5092895;28;20460;-75
2022/05/18 02:11:03;;;;;;;3.83;1.90;;;21.80;56.80;;;;;;5093321;28;20048;-75
2022/05/18 02:13:30;;;;;;;2.25;1.90;;;21.80;56.80;;;;;;5093495;28;20462;-75
2022/05/18 02:15:56;;;;;;;2.50;1.70;;;21.80;56.80;;;;;;5094771;28;20048;-75
2022/05/18 02:18:25;;;;;;;2.92;2.08;;;21.70;60.30;;;;;;5093573;28;20052;-75
2022/05/18 02:20:51;;;;;;;2.95;1.83;;;21.80;56.80;;;;;;5093071;28;20119;-75
2022/05/18 02:23:18;;;;;;;2.30;1.75;;;21.70;56.70;;;;;;5091944;28;20106;-75
2022/05/18 02:25:45;;;;;;;2.58;1.85;;;21.70;56.70;;;;;;5093211;28;20481;-75
2022/05/18 02:28:11;;;;;;;2.13;1.80;;;22.10;59.30;;;;;;5093122;28;20135;-75
2022/05/18 02:30:38;;;;;;;2.45;1.73;;;21.70;56.70;;;;;;5092947;28;20123;-75
2022/05/18 02:33:05;;;;;;;3.65;1.83;;;21.70;56.70;;;;;;5093282;28;20062;-75
2022/05/18 02:35:34;;;;;;;2.08;1.70;;;21.70;56.70;;;;;;5092938;28;20150;-75
2022/05/18 02:38:01;;;;;;;2.80;1.63;;;21.80;58.50;;;;;;5094054;28;20439;-75
2022/05/18 02:40:29;;;;;;;5.05;1.90;;;21.80;60.10;;;;;;5074143;28;20051;-75
2022/05/18 02:42:56;;;;;;;2.65;1.90;;;21.70;60.80;;;;;;5093169;28;20059;-75
2022/05/18 02:45:23;;;;;;;2.47;1.77;;;21.70;56.70;;;;;;5094126;28;20394;-75
2022/05/18 02:47:50;;;;;;;3.38;1.80;;;21.70;56.70;;;;;;5085432;28;20062;-75
2022/05/18 02:50:17;;;;;;;2.20;1.70;;;21.70;56.70;;;;;;5072238;28;20545;-75
2022/05/18 02:52:45;;;;;;;2.55;2.00;;;21.60;56.70;;;;;;5072518;28;20056;-75
2022/05/18 02:57:56;;;;;;;3.00;1.70;;;21.70;58.40;;;;;;5116435;27;20047;-75
2022/05/18 03:00:22;;;;;;;2.42;1.40;;;21.60;56.70;;;;;;5092557;28;20135;-75
2022/05/18 03:02:49;;;;;;;2.53;1.85;;;21.60;56.70;;;;;;5092813;28;20147;-75
2022/05/18 03:05:16;;;;;;;2.80;1.60;;;21.60;56.70;;;;;;5092452;28;20408;-75
2022/05/18 03:07:43;;;;;;;3.50;1.80;;;21.60;56.70;;;;;;5092765;28;20386;-75
2022/05/18 03:10:15;;;;;;;2.38;1.60;;;21.60;56.70;;;;;;5092241;28;20047;-75
2022/05/18 03:12:42;;;;;;;3.00;1.70;;;21.60;56.70;;;;;;5090847;28;20131;-75
2022/05/18 03:15:10;;;;;;;2.47;1.60;;;21.60;56.70;;;;;;5092423;28;20131;-75
2022/05/18 03:17:36;;;;;;;2.15;1.73;;;21.50;59.80;;;;;;5092152;28;20056;-75
2022/05/18 03:20:04;;;;;;;1.73;1.48;;;21.50;56.70;;;;;;5091975;28;20161;-75
2022/05/18 03:25:16;;;;;;;2.75;1.60;;;21.60;56.70;;;;;;5126454;27;20044;-75
2022/05/18 03:27:43;;;;;;;2.45;1.80;;;21.60;60.30;;;;;;5124805;27;20569;-75
2022/05/18 03:30:11;;;;;;;12.02;2.40;;;21.50;56.70;;;;;;5091926;28;20048;-75
2022/05/18 03:32:39;;;;;;;2.30;1.60;;;21.50;56.70;;;;;;5091803;28;20492;-75
2022/05/18 03:35:08;;;;;;;2.45;1.70;;;21.50;56.70;;;;;;5092216;28;20056;-75
2022/05/18 03:37:35;;;;;;;2.05;1.70;;;21.50;56.70;;;;;;5126338;27;20138;-75
2022/05/18 03:40:01;;;;;;;3.00;1.80;;;21.50;56.70;;;;;;5091806;28;20569;-75
2022/05/18 03:42:29;;;;;;;2.50;1.60;;;21.50;56.70;;;;;;5091734;28;20047;-75
2022/05/18 03:44:56;;;;;;;2.50;1.80;;;21.50;56.70;;;;;;5090267;28;20127;-75
2022/05/18 03:47:23;;;;;;;3.28;1.88;;;22.50;61.00;;;;;;5091608;28;20126;-75
2022/05/18 03:49:49;;;;;;;2.13;1.70;;;21.30;60.40;;;;;;5091711;28;20131;-75
2022/05/18 03:52:16;;;;;;;1.83;1.58;;;21.40;56.60;;;;;;5091571;28;20044;-75
2022/05/18 03:54:43;;;;;;;2.28;1.67;;;21.50;56.70;;;;;;5091661;28;20135;-75
2022/05/18 03:57:10;;;;;;;2.38;1.80;;;21.30;60.30;;;;;;5091544;28;20476;-75
2022/05/18 03:59:39;;;;;;;1.67;1.40;;;21.40;56.70;;;;;;5090421;28;20060;-75
2022/05/18 04:02:06;;;;;;;2.33;1.58;;;21.50;56.70;;;;;;5091646;28;20077;-75
2022/05/18 04:04:33;;;;;;;3.05;1.73;;;21.40;56.60;;;;;;5125540;27;20052;-75
2022/05/18 04:07:00;;;;;;;2.53;1.80;;;21.20;59.20;;;;;;5091706;28;20048;-75
2022/05/18 04:09:26;;;;;;;2.50;1.70;;;21.40;56.70;;;;;;5091018;28;20451;-75
2022/05/18 04:11:53;;;;;;;2.08;1.70;;;21.40;56.60;;;;;;5091182;28;20404;-75
2022/05/18 04:14:20;;;;;;;2.42;1.70;;;21.40;56.70;;;;;;5091522;28;20135;-75
2022/05/18 04:16:50;;;;;;;2.25;1.70;;;21.40;56.60;;;;;;5089702;28;20553;-75
2022/05/18 04:19:17;;;;;;;1.98;1.58;;;21.40;56.70;;;;;;5091382;28;20044;-75
2022/05/18 04:21:43;;;;;;;1.70;1.52;;;21.40;56.70;;;;;;5090956;28;20401;-75
2022/05/18 04:24:10;;;;;;;3.35;1.73;;;21.40;60.50;;;;;;5090750;28;20225;-75
2022/05/18 04:26:37;;;;;;;3.03;1.70;;;21.40;56.70;;;;;;5091012;28;20066;-75
2022/05/18 04:29:04;;;;;;;3.28;1.80;;;21.40;56.60;;;;;;5091015;28;20441;-75
2022/05/18 04:31:30;;;;;;;3.75;1.60;;;22.00;60.40;;;;;;5089861;28;20523;-75
2022/05/18 04:33:58;;;;;;;3.45;1.88;;;21.30;56.60;;;;;;5088855;28;20094;-75
2022/05/18 04:36:25;;;;;;;2.58;1.70;;;21.10;60.80;;;;;;5090764;28;20066;-75
2022/05/18 04:38:52;;;;;;;2.00;1.80;;;21.30;60.70;;;;;;5091943;28;20074;-75
2022/05/18 04:41:18;;;;;;;2.42;1.70;;;21.40;56.70;;;;;;5090653;28;20134;-75
2022/05/18 04:43:45;;;;;;;1.90;1.70;;;21.40;56.60;;;;;;5090583;28;20159;-75
2022/05/18 04:46:12;;;;;;;2.03;1.70;;;21.40;56.60;;;;;;5090875;28;20131;-75
2022/05/18 04:48:40;;;;;;;1.88;1.50;;;21.40;56.60;;;;;;5088977;28;20497;-75
2022/05/18 04:51:09;;;;;;;2.53;1.75;;;21.40;56.60;;;;;;5090504;28;20051;-75
2022/05/18 04:53:36;;;;;;;2.75;1.90;;;21.30;60.90;;;;;;5090742;28;20051;-75
2022/05/18 04:56:03;;;;;;;2.65;1.77;;;21.30;59.30;;;;;;5090481;28;20132;-75
2022/05/18 04:58:30;;;;;;;1.92;1.70;;;21.40;56.60;;;;;;5091386;28;20568;-75
2022/05/18 05:00:58;;;;;;;2.70;1.73;;;21.50;56.50;;;;;;5090268;28;20050;-75
2022/05/18 05:03:25;;;;;;;3.85;1.80;;;21.50;56.30;;;;;;5090664;28;20060;-75
2022/05/18 05:05:52;;;;;;;1.85;1.58;;;21.60;56.30;;;;;;5084502;28;20128;-75
2022/05/18 05:08:20;;;;;;;2.30;1.70;;;21.90;60.40;;;;;;5104242;28;20143;-75
2022/05/18 05:10:46;;;;;;;2.05;1.55;;;21.50;56.30;;;;;;5069777;28;20126;-75
2022/05/18 05:13:13;;;;;;;2.50;1.80;;;21.50;56.30;;;;;;5070555;28;20118;-75
2022/05/18 05:15:40;;;;;;;2.42;1.92;;;21.40;56.30;;;;;;5070303;28;20544;-75
2022/05/18 05:18:07;;;;;;;2.70;1.92;;;21.70;59.20;;;;;;5070098;28;20127;-75
2022/05/18 05:20:34;;;;;;;1.67;1.50;;;21.40;56.40;;;;;;5069926;28;20568;-75
2022/05/18 05:23:01;;;;;;;2.70;1.73;;;21.40;56.40;;;;;;5087725;28;20139;-75
2022/05/18 05:25:29;;;;;;;1.95;1.73;;;21.40;56.50;;;;;;5090140;28;20054;-74
2022/05/18 05:27:55;;;;;;;2.10;1.75;;;22.00;58.70;;;;;;5090399;28;20058;-76
2022/05/18 05:30:22;;;;;;;2.78;1.70;;;21.40;56.50;;;;;;5090354;28;20408;-76
2022/05/18 05:32:49;;;;;;;2.38;1.80;;;21.40;56.50;;;;;;5089733;28;20127;-76
2022/05/18 05:35:16;;;;;;;2.72;1.75;;;21.40;60.10;;;;;;5090627;28;20485;-75
2022/05/18 05:37:42;;;;;;;2.47;1.60;;;21.40;56.60;;;;;;5117307;28;20044;-75
2022/05/18 05:40:11;;;;;;;4.22;1.98;;;21.40;56.50;;;;;;5090179;28;20060;-75
2022/05/18 05:42:40;;;;;;;5.18;1.98;;;21.40;56.50;;;;;;5093222;28;20052;-73
2022/05/18 05:45:08;;;;;;;5.35;2.92;;;21.40;56.50;;;;;;5095176;28;20052;-74
2022/05/18 05:47:35;;;;;;;4.22;2.35;;;21.40;56.80;;;;;;5128471;27;20485;-74
2022/05/18 05:50:02;;;;;;;5.22;1.88;;;21.50;57.00;;;;;;5093774;28;20080;-73
2022/05/18 05:52:28;;;;;;;5.22;2.10;;;20.60;59.40;;;;;;5093834;28;20564;-73
2022/05/18 05:54:55;;;;;;;6.32;2.10;;;21.60;57.00;;;;;;5078206;28;20052;-74
2022/05/18 05:57:22;;;;;;;10.90;2.60;;;21.70;56.90;;;;;;5073526;28;20052;-73
2022/05/18 05:59:50;;;;;;;3.70;1.80;;;21.80;56.90;;;;;;5073300;28;20428;-73
2022/05/18 06:02:16;;;;;;;2.88;1.77;;;21.90;56.80;;;;;;5073738;28;20059;-73
2022/05/18 06:04:43;;;;;;;4.30;2.13;;;20.80;60.00;;;;;;5073649;28;20066;-73
2022/05/18 06:07:10;;;;;;;5.00;2.10;;;22.10;56.40;;;;;;5073425;28;20053;-73
2022/05/18 06:09:37;;;;;;;4.38;1.83;;;21.80;59.30;;;;;;5074245;28;20074;-73
2022/05/18 06:12:04;;;;;;;2.60;1.48;;;22.30;56.50;;;;;;5073084;28;20390;-75
2022/05/18 06:14:31;;;;;;;5.95;2.92;;;22.50;60.00;;;;;;5107178;28;20059;-74
2022/05/18 06:16:59;;;;;;;6.72;2.50;;;22.60;55.90;;;;;;5073135;28;20060;-75
2022/05/18 06:19:26;;;;;;;4.93;2.13;;;22.70;55.70;;;;;;5073209;28;20147;-75
2022/05/18 06:21:52;;;;;;;5.38;2.10;;;22.80;55.60;;;;;;5076339;28;20123;-74
2022/05/18 06:24:19;;;;;;;3.35;1.80;;;22.90;55.40;;;;;;5093212;28;20055;-74
2022/05/18 06:26:46;;;;;;;5.15;2.08;;;23.00;55.20;;;;;;5091471;28;20043;-75
2022/05/18 06:29:13;;;;;;;7.38;2.33;;;23.10;54.90;;;;;;5093134;28;20135;-74
2022/05/18 06:31:39;;;;;;;5.03;2.00;;;24.00;58.70;;;;;;5092772;28;20477;-75
2022/05/18 06:34:07;;;;;;;8.82;2.20;;;23.30;54.70;;;;;;5093391;28;20056;-76
2022/05/18 06:36:34;;;;;;;5.20;2.28;;;23.40;54.50;;;;;;5093180;28;20144;-76
2022/05/18 06:39:01;;;;;;;6.72;2.08;;;23.40;54.30;;;;;;5092545;28;20059;-75
2022/05/18 06:41:28;;;;;;;6.25;2.05;;;23.50;54.80;;;;;;5072508;28;20051;-76
2022/05/18 06:43:56;;;;;;;4.05;1.70;;;23.60;54.20;;;;;;5087208;28;20052;-75
2022/05/18 06:46:24;;;;;;;4.93;2.10;;;23.70;54.10;;;;;;5093025;28;20056;-75
2022/05/18 06:48:50;;;;;;;4.97;2.58;;;23.70;54.00;;;;;;5093011;28;20135;-75
2022/05/18 06:51:20;;;;;;;3.00;1.90;;;23.80;54.00;;;;;;5092790;28;20135;-75
2022/05/18 06:53:48;;;;;;;3.63;1.77;;;23.90;53.90;;;;;;5092225;28;20075;-76
2022/05/18 06:56:15;;;;;;;3.63;1.73;;;24.10;54.00;;;;;;5082015;28;20079;-75
2022/05/18 06:58:41;;;;;;;4.05;1.90;;;24.00;53.80;;;;;;5072593;28;20064;-75
2022/05/18 07:01:08;;;;;;;5.25;2.00;;;23.90;56.90;;;;;;5072264;28;20056;-75
2022/05/18 07:03:35;;;;;;;4.80;1.90;;;24.10;53.70;;;;;;5072579;28;20111;-76
2022/05/18 07:06:02;;;;;;;2.88;2.00;;;24.30;54.00;;;;;;5071888;28;20052;-75
2022/05/18 07:08:30;;;;;;;3.10;1.90;;;24.30;53.70;;;;;;5072378;28;20493;-75
2022/05/18 07:10:56;;;;;;;3.72;1.70;;;24.40;57.40;;;;;;5073251;28;20055;-75
2022/05/18 07:13:23;;;;;;;2.55;1.80;;;24.30;53.60;;;;;;5088629;28;20051;-75
2022/05/18 07:15:50;;;;;;;4.05;1.88;;;24.30;53.60;;;;;;5086551;28;20144;-75
2022/05/18 07:18:17;;;;;;;4.13;1.85;;;24.60;57.40;;;;;;5072079;28;20058;-75
2022/05/18 07:20:43;;;;;;;2.90;1.88;;;24.60;53.50;;;;;;5072104;28;20078;-76
2022/05/18 07:23:10;;;;;;;4.25;2.00;;;24.60;53.40;;;;;;5079883;28;20052;-75
2022/05/18 07:25:38;;;;;;;4.63;1.88;;;24.70;53.40;;;;;;5091960;28;20095;-75
2022/05/18 07:28:05;;;;;;;2.88;1.70;;;24.60;54.50;;;;;;5090680;28;20056;-75
2022/05/18 07:30:32;;;;;;;4.25;2.00;;;24.80;53.40;;;;;;5091927;28;20536;-74
2022/05/18 07:32:59;;;;;;;4.43;1.80;;;25.90;57.90;;;;;;5091735;28;20054;-74
2022/05/18 07:35:28;;;;;;;3.63;1.85;;;24.90;53.90;;;;;;5091933;28;20450;-74
2022/05/18 07:37:55;;;;;;;2.90;1.92;;;24.80;53.40;;;;;;5091917;28;20048;-74
2022/05/18 07:40:22;;;;;;;3.30;1.90;;;25.00;53.30;;;;;;5091797;28;20051;-74
2022/05/18 07:42:54;;;;;;;4.93;1.85;;;25.00;53.10;;;;;;5092207;28;20051;-74
2022/05/18 07:45:21;;;;;;;3.70;1.70;;;25.10;53.20;;;;;;5062846;28;20139;-73
2022/05/18 07:47:48;;;;;;;2.42;1.60;;;27.30;54.70;;;;;;5079812;28;20416;-73
2022/05/18 07:50:16;;;;;;;3.60;1.88;;;25.20;53.20;;;;;;5091185;28;20044;-73
2022/05/18 07:52:43;;;;;;;4.55;1.85;;;25.20;53.10;;;;;;5091428;28;20044;-73
2022/05/18 07:55:10;;;;;;;2.90;1.55;;;25.20;53.00;;;;;;5091728;28;20147;-72
2022/05/18 07:57:38;;;;;;;3.13;1.60;;;25.20;52.90;;;;;;5091717;28;20050;-73
2022/05/18 08:00:08;;;;;;;3.45;1.92;;;25.30;52.90;;;;;;5090992;28;20083;-72
2022/05/18 08:02:35;;;;;;;2.10;1.60;;;25.30;52.90;;;;;;5071027;28;20109;-71
2022/05/18 08:05:01;;;;;;;2.58;1.65;;;25.40;52.90;;;;;;5070282;28;20408;-72
2022/05/18 08:07:28;;;;;;;3.10;1.73;;;25.40;52.90;;;;;;5071242;28;20056;-72
2022/05/18 08:15:25;;;;;;;5.97;1.95;;;25.30;52.70;;;;;;5105362;28;20044;-72
2022/05/18 08:17:52;;;;;;;3.60;2.20;;;25.40;52.70;;;;;;5083074;28;20047;-73
2022/05/18 08:20:20;;;;;;;2.03;1.50;;;24.50;55.80;;;;;;5091046;28;20058;-73
2022/05/18 08:22:46;;;;;;;4.78;1.80;;;25.70;56.20;;;;;;5091440;28;20048;-73
2022/05/18 08:25:16;;;;;;;2.88;1.55;;;25.50;52.70;;;;;;5092265;28;20044;-72
2022/05/18 08:27:44;;;;;;;3.33;1.50;;;25.50;52.70;;;;;;5091045;28;20047;-73
2022/05/18 08:30:11;;;;;;;2.65;1.90;;;25.50;52.60;;;;;;5090799;28;20059;-72
2022/05/18 08:32:39;;;;;;;2.55;1.80;;;25.50;52.60;;;;;;5089089;28;20052;-71
2022/05/18 08:35:06;;;;;;;1.92;1.50;;;25.60;52.60;;;;;;5092346;28;20066;-72
2022/05/18 08:37:38;;;;;;;4.13;1.70;;;25.60;52.60;;;;;;5125318;27;20051;-72
2022/05/18 08:40:07;;;;;;;4.40;2.00;;;25.60;52.60;;;;;;5090439;28;20056;-71
2022/05/18 08:42:34;;;;;;;3.28;1.60;;;25.70;55.80;;;;;;5075996;28;20062;-71
2022/05/18 08:45:03;;;;;;;2.90;1.77;;;25.60;52.50;;;;;;5070196;28;20057;-71
2022/05/18 08:47:34;;;;;;;3.38;1.58;;;25.70;52.60;;;;;;5071480;28;20094;-71
2022/05/18 08:50:03;;;;;;;2.78;1.65;;;25.70;52.60;;;;;;5071716;28;20052;-72
2022/05/18 08:52:42;;;;;;;7.65;1.92;;;25.70;52.60;;;;;;5070432;28;20135;-71
2022/05/18 08:55:36;;;;;;;3.55;1.52;;;25.70;52.60;;;;;;5070890;28;20456;-72
2022/05/18 08:58:04;;;;;;;3.63;1.73;;;26.00;53.50;;;;;;5104107;28;20052;-72
2022/05/18 09:00:34;;;;;;;3.22;1.60;;;25.70;52.60;;;;;;5070610;28;20420;-72
2022/05/18 09:03:05;;;;;;;4.18;1.70;;;25.70;52.60;;;;;;5070103;28;20058;-72
2022/05/18 09:05:34;;;;;;;2.05;1.50;;;25.70;52.60;;;;;;5085583;28;20059;-71
2022/05/18 09:08:04;;;;;;;5.63;1.70;;;26.00;53.40;;;;;;5070120;28;20110;-72
2022/05/18 09:10:34;;;;;;;1.90;1.58;;;25.70;52.60;;;;;;5070387;28;20408;-72
2022/05/18 09:13:01;;;;;;;3.65;1.70;;;25.70;52.60;;;;;;5070285;28;20428;-72
2022/05/18 09:15:35;;;;;;;1.92;1.40;;;25.70;52.60;;;;;;5085742;28;20078;-71
2022/05/18 09:18:03;;;;;;;3.13;1.60;;;26.00;53.80;;;;;;5093350;28;20113;-71
2022/05/18 09:20:36;;;;;;;3.28;1.88;;;25.70;52.60;;;;;;5095237;28;20048;-72
2022/05/18 09:23:15;;;;;;;4.10;1.65;;;25.70;52.40;;;;;;5126215;27;20056;-71
2022/05/18 09:25:50;;;;;;;5.63;1.50;;;25.80;52.40;;;;;;5094651;28;20669;-71
2022/05/18 09:28:22;;;;;;;3.83;1.48;;;25.70;52.20;;;;;;5094639;28;20059;-71
2022/05/18 09:31:07;;;;;;;5.90;1.88;;;25.70;52.10;;;;;;5095472;28;20048;-71
2022/05/18 09:33:51;;;;;;;4.22;1.80;;;25.80;52.00;;;;;;5094413;28;20048;-71
2022/05/18 09:36:49;;;;;;;3.23;1.70;;;26.30;53.90;;;;;;5128380;27;20155;-71
2022/05/18 09:39:17;;;;;;;5.03;2.00;;;25.70;51.90;;;;;;5078361;28;20400;-72
2022/05/18 09:41:45;;;;;;;3.22;1.52;;;25.70;51.80;;;;;;5095232;28;20560;-72
2022/05/18 09:44:18;;;;;;;5.57;1.60;;;25.70;51.80;;;;;;5094471;28;20052;-72
2022/05/18 09:46:44;;;;;;;5.82;1.73;;;25.70;51.70;;;;;;5093894;28;20094;-72
2022/05/18 09:49:14;;;;;;;2.55;1.50;;;25.70;51.70;;;;;;5095198;28;20478;-72
2022/05/18 09:51:42;;;;;;;3.25;1.52;;;25.70;51.70;;;;;;5093255;28;20127;-72
2022/05/18 09:54:09;;;;;;;6.65;1.80;;;25.60;51.70;;;;;;5093211;28;20062;-72
2022/05/18 09:56:38;;;;;;;7.53;1.75;;;25.60;51.80;;;;;;5093962;28;20079;-72
2022/05/18 09:59:08;;;;;;;4.15;1.75;;;25.60;51.80;;;;;;5095092;28;20135;-72
2022/05/18 10:07:32;;;;;;;3.97;1.50;;;25.60;51.80;;;;;;5128044;27;20578;-72
2022/05/18 10:10:05;;;;;;;5.25;1.77;;;25.60;51.80;;;;;;5093640;28;20052;-72
2022/05/18 10:12:37;;;;;;;2.53;1.55;;;25.60;51.80;;;;;;5089177;28;20055;-72
2022/05/18 10:15:07;;;;;;;3.35;1.67;;;25.60;51.80;;;;;;5077326;28;20139;-71
2022/05/18 10:17:36;;;;;;;2.50;1.67;;;25.60;51.80;;;;;;5087574;28;20044;-72
2022/05/18 10:20:06;;;;;;;3.22;1.67;;;25.60;51.80;;;;;;5072913;28;20055;-71
2022/05/18 10:22:37;;;;;;;2.35;1.50;;;25.60;51.80;;;;;;5107328;28;20467;-71
2022/05/18 10:25:06;;;;;;;3.83;2.08;;;25.50;55.40;;;;;;5072966;28;20053;-71
2022/05/18 10:27:36;;;;;;;6.25;2.05;;;25.50;52.00;;;;;;5072480;28;20057;-71
2022/05/18 10:30:09;;;;;;;7.05;1.80;;;25.50;52.10;;;;;;5073794;28;20052;-72
2022/05/18 10:32:36;;;;;;;9.57;2.72;;;25.60;52.20;;;;;;5115987;27;20123;-72
2022/05/18 10:35:04;;;;;;;14.90;3.47;;;25.60;52.20;;;;;;5090278;28;20052;-72
2022/05/18 10:37:32;;;;;;;16.55;4.38;;;25.50;52.10;;;;;;5084390;28;20040;-73
2022/05/18 10:40:02;;;;;;;15.88;4.03;;;25.60;52.20;;;;;;5092276;28;20150;-72
2022/05/18 10:42:30;;;;;;;16.23;4.43;;;25.50;52.20;;;;;;5091869;28;20068;-72
2022/05/18 10:44:58;;;;;;;12.30;3.78;;;25.60;52.30;;;;;;5073770;28;20357;-72
2022/05/18 10:47:30;;;;;;;13.20;3.63;;;25.60;52.30;;;;;;5071458;28;20060;-72
2022/05/18 10:50:28;;;;;;;12.05;3.47;;;25.60;52.20;;;;;;5071612;28;20413;-72
2022/05/18 10:52:58;;;;;;;11.07;3.63;;;25.50;52.20;;;;;;5045757;28;20067;-72
2022/05/18 10:55:28;;;;;;;7.82;3.05;;;25.50;52.20;;;;;;5063796;28;20405;-72
2022/05/18 10:57:57;;;;;;;10.70;3.88;;;25.50;52.10;;;;;;5072944;28;20042;-72
2022/05/18 11:00:27;;;;;;;8.68;2.95;;;25.50;52.10;;;;;;5071074;28;20106;-72
2022/05/18 11:02:56;;;;;;;10.57;2.95;;;25.50;52.10;;;;;;5071212;28;20052;-72
2022/05/18 11:05:34;;;;;;;7.95;3.05;;;25.50;52.10;;;;;;5072140;28;20063;-72
2022/05/18 11:08:01;;;;;;;14.00;4.82;;;25.40;53.10;;;;;;5072300;28;20048;-72
2022/05/18 11:10:37;;;;;;;12.00;4.35;;;25.40;52.40;;;;;;5089971;28;20052;-72
2022/05/18 11:13:06;;;;;;;13.38;4.82;;;25.40;52.40;;;;;;5091461;28;20408;-72
2022/05/18 11:15:38;;;;;;;12.13;4.10;;;25.40;52.30;;;;;;5091520;28;20406;-71
2022/05/18 11:18:09;;;;;;;18.38;5.65;;;25.40;52.30;;;;;;5091335;28;20492;-72
2022/05/18 11:20:42;;;;;;;20.58;5.78;;;25.40;52.30;;;;;;5084460;28;20040;-72
2022/05/18 11:23:28;;;;;;;16.58;5.47;;;25.40;52.30;;;;;;5072245;28;20550;-71
2022/05/18 11:26:02;;;;;;;37.85;10.32;;;25.40;52.40;;;;;;5071824;28;20131;-72
2022/05/18 11:28:34;;;;;;;32.40;10.95;;;25.30;52.50;;;;;;5091223;28;20056;-72
2022/05/18 11:31:09;;;;;;;43.03;14.77;;;25.30;52.60;;;;;;5092129;28;20052;-72
2022/05/18 11:33:38;;;;;;;35.80;10.70;;;25.30;52.60;;;;;;5091888;28;20416;-72
2022/05/18 11:36:09;;;;;;;28.98;9.52;;;25.30;52.60;;;;;;5091684;28;20141;-71
2022/05/18 11:39:01;;;;;;;31.85;10.35;;;25.30;52.60;;;;;;5090816;28;20066;-72
2022/05/18 11:41:35;;;;;;;34.05;11.57;;;25.30;52.60;;;;;;5091800;28;20058;-71
2022/05/18 11:44:04;;;;;;;30.77;10.63;;;25.30;52.70;;;;;;5126033;27;20059;-72
2022/05/18 11:46:41;;;;;;;40.55;13.88;;;25.30;52.70;;;;;;5093077;28;20055;-72
2022/05/18 11:49:13;;;;;;;32.40;11.32;;;25.30;52.70;;;;;;5091298;28;20583;-71
2022/05/18 11:51:45;;;;;;;33.65;11.27;;;25.30;52.70;;;;;;5125522;27;20070;-71
2022/05/18 11:54:19;;;;;;;31.88;10.15;;;25.30;52.70;;;;;;5073795;28;20041;-71
2022/05/18 11:56:49;;;;;;;31.00;9.57;;;25.30;52.70;;;;;;5071612;28;20060;-72
2022/05/18 11:59:44;;;;;;;25.58;9.75;;;24.40;54.70;;;;;;5072480;28;20040;-71
2022/05/18 12:02:22;;;;;;;29.13;9.10;;;25.30;52.70;;;;;;5071294;28;20087;-71
2022/05/18 12:05:13;;;;;;;26.15;8.73;;;25.20;52.70;;;;;;5105457;28;20052;-72
2022/05/18 12:07:49;;;;;;;23.13;8.32;;;25.30;52.80;;;;;;5071365;28;20060;-72
2022/05/18 12:10:21;;;;;;;26.63;8.55;;;25.30;54.80;;;;;;5090725;28;20414;-72
2022/05/18 12:12:53;;;;;;;23.67;7.90;;;24.80;54.50;;;;;;5091555;28;20130;-72
2022/05/18 12:15:23;;;;;;;20.80;6.85;;;25.20;52.70;;;;;;5092555;28;20094;-71
2022/05/18 12:17:51;;;;;;;21.45;8.07;;;25.30;52.80;;;;;;5090404;28;20127;-71
2022/05/18 12:20:20;;;;;;;18.17;7.05;;;25.30;52.80;;;;;;5091746;28;20048;-71
2022/05/18 12:22:49;;;;;;;20.40;7.32;;;25.20;55.60;;;;;;5091343;28;20431;-71
2022/05/18 12:25:17;;;;;;;20.13;7.45;;;25.30;52.70;;;;;;5089522;28;20138;-72
2022/05/18 12:27:43;;;;;;;16.70;6.85;;;25.30;52.70;;;;;;5081748;28;20432;-71
2022/05/18 12:30:14;;;;;;;18.00;7.30;;;25.30;52.80;;;;;;5090770;28;20052;-71
2022/05/18 12:32:40;;;;;;;20.05;7.07;;;25.30;52.70;;;;;;5091047;28;20058;-72
2022/05/18 12:35:14;;;;;;;17.50;6.43;;;25.30;52.70;;;;;;5092547;28;20082;-71
2022/05/18 12:37:50;;;;;;;16.75;6.35;;;25.30;52.70;;;;;;5091037;28;20066;-72
2022/05/18 12:40:33;;;;;;;18.02;6.82;;;25.30;52.70;;;;;;5091701;28;20052;-71
2022/05/18 12:43:04;;;;;;;17.23;6.05;;;25.30;52.70;;;;;;5072001;28;20053;-71
2022/05/18 12:45:37;;;;;;;18.00;6.28;;;25.30;52.90;;;;;;5099874;28;20048;-72
2022/05/18 12:48:13;;;;;;;16.85;6.28;;;25.30;52.80;;;;;;5097924;28;20060;-71
2022/05/18 12:50:45;;;;;;;14.13;6.03;;;25.30;52.80;;;;;;5100611;28;20051;-71
2022/05/18 12:53:13;;;;;;;12.00;5.93;;;25.30;52.90;;;;;;5101231;28;20097;-71
2022/05/18 12:55:43;;;;;;;15.85;5.85;;;25.30;52.90;;;;;;5101296;28;20396;-71
2022/05/18 12:58:25;;;;;;;12.80;5.63;;;25.10;53.20;;;;;;5125940;28;20143;-71
2022/05/18 13:01:04;;;;;;;13.10;5.38;;;25.20;52.80;;;;;;5099701;28;20070;-72
2022/05/18 13:03:43;;;;;;;12.73;5.75;;;25.20;52.90;;;;;;5110727;28;20130;-71
2022/05/18 13:06:15;;;;;;;14.73;5.38;;;25.20;53.00;;;;;;5111382;28;20047;-71
2022/05/18 13:08:56;;;;;;;15.98;4.90;;;24.80;55.50;;;;;;5111731;28;20044;-71
2022/05/18 13:11:29;;;;;;;12.63;5.18;;;25.20;53.10;;;;;;5110699;28;20062;-71